This is the latest recevied weather packets stored in our database for station/object N3UJJ-1. If no packets are shown the sender has not sent any weather packets the latest 10 day(s).
| Time | Temp. | Humidity | Pressure | Rain* | Wind** | Luminosity | Snow |
|---|---|---|---|---|---|---|---|
| 1778046302 | 21.11° C | 66% | 1010 hPa | 0 mm | - | - | - |
| 1778042691 | 21.67° C | 61% | 1010.5 hPa | 0 mm | - | - | - |
| 1778021089 | 27.22° C | 37% | 1008.9 hPa | 0 mm | - | - | - |
| 1777988702 | 22.22° C | 58% | 1011.8 hPa | 0 mm | - | - | - |
| 1777985114 | 20° C | 62% | 1012 hPa | 0 mm | - | - | - |
| 1777981499 | 17.78° C | 67% | 1011.8 hPa | 0 mm | - | - | - |
| 1777967099 | 16.11° C | 68% | 1010.8 hPa | 0 mm | - | - | - |
| 1777949091 | 19.44° C | 53% | 1010.4 hPa | 0 mm | - | - | - |
| 1777488318 | 15.56° C | 84% | 1010.6 hPa | 0 mm | - | - | - |
| 1777470319 | 14.44° C | 80% | 1014.1 hPa | 0 mm | - | - | - |
| 1777466693 | 13.33° C | 80% | 1014 hPa | 0 mm | - | - | - |
| 1777459520 | 12.22° C | 82% | 1014.1 hPa | 0 mm | - | - | - |
| 1777441494 | 12.78° C | 78% | 1015.9 hPa | 0 mm | - | - | - |
| 1777412700 | 16.11° C | 72% | 1016.7 hPa | 0 mm | - | - | - |
| 1777401900 | 15° C | 76% | 1018.1 hPa | 0 mm | - | - | - |
| 1777398315 | 13.33° C | 86% | 1019 hPa | 0 mm | - | - | - |
| 1777394696 | 11.67° C | 87% | 1020.1 hPa | 0 mm | - | - | - |
| 1777380302 | 12.22° C | 84% | 1021 hPa | 0 mm | - | - | - |
| 1777376698 | 9.44° C | 95% | 1021.4 hPa | 0 mm | - | - | - |
| 1777362303 | 7.22° C | 92% | 1022.3 hPa | 0 mm | - | - | - |
| 1777333499 | 16.67° C | 61% | 1022.5 hPa | 0 mm | - | - | - |
| 1777308321 | 17.22° C | 68% | 1023.9 hPa | 0 mm | - | - | - |
| 1777279525 | 3.89° C | 95% | 1022.2 hPa | 0 mm | - | - | - |
| 1777243509 | 12.22° C | 78% | 1019.8 hPa | 0 mm | - | - | - |
| 1777232718 | 11.67° C | 80% | 1018.6 hPa | 0 mm | - | - | - |
* Rain latest hour (hover to see other rain measurements)
** Current wind speed in m/s (hover to see current wind gust speed)